Time;durP1;ratioP1;P1;durP2;ratioP2;P2;SDS_P1;SDS_P2;PMS_P1;PMS_P2;Temp;Humidity;BMP_temperature;BMP_pressure;BME280_temperature;BME280_humidity;BME280_pressure;Samples;Min_cycle;Max_cycle;Signal;HPM_P1;HPM_P2
2022/07/27 00:00:32;;;;;;;2.60;0.90;;;15.70;99.90;;;;;;5039236;28;20044;-69
2022/07/27 00:02:58;;;;;;;2.07;0.57;;;15.60;99.90;;;;;;5042792;28;20037;-69
2022/07/27 00:05:26;;;;;;;3.37;0.80;;;15.60;99.90;;;;;;5046331;28;20295;-69
2022/07/27 00:07:52;;;;;;;2.20;0.77;;;15.50;99.90;;;;;;5039870;28;20306;-69
2022/07/27 00:10:17;;;;;;;2.55;0.70;;;15.50;99.90;;;;;;5036343;28;20045;-69
2022/07/27 00:12:43;;;;;;;3.83;0.80;;;15.50;99.90;;;;;;5038206;28;20110;-69
2022/07/27 00:15:09;;;;;;;2.35;0.80;;;15.40;99.90;;;;;;5035130;28;20065;-68
2022/07/27 00:17:35;;;;;;;4.47;1.10;;;15.40;99.90;;;;;;5040537;28;20047;-68
2022/07/27 00:20:01;;;;;;;0.90;0.40;;;15.40;99.90;;;;;;5039536;28;20599;-68
2022/07/27 00:22:27;;;;;;;2.63;0.82;;;15.30;99.90;;;;;;5042009;28;20049;-69
2022/07/27 00:24:52;;;;;;;2.90;0.50;;;15.40;99.90;;;;;;5035489;28;20048;-69
2022/07/27 00:27:18;;;;;;;2.05;0.68;;;15.30;99.90;;;;;;5035538;28;20056;-69
2022/07/27 00:29:44;;;;;;;4.05;0.85;;;15.30;99.90;;;;;;5027946;28;20033;-69
2022/07/27 00:32:10;;;;;;;3.20;0.60;;;15.20;99.90;;;;;;5041771;28;20037;-69
2022/07/27 00:34:36;;;;;;;1.35;0.50;;;15.20;99.90;;;;;;5036043;28;20539;-69
2022/07/27 00:37:02;;;;;;;1.95;0.40;;;15.20;99.90;;;;;;5038806;28;20045;-69
2022/07/27 00:39:28;;;;;;;2.05;0.52;;;15.10;99.90;;;;;;5043969;28;20462;-69
2022/07/27 00:41:54;;;;;;;0.65;0.40;;;15.20;99.90;;;;;;5036474;28;20574;-72
2022/07/27 00:44:27;;;;;;;2.65;0.50;;;15.10;99.90;;;;;;5022432;28;20381;-71
2022/07/27 00:46:56;;;;;;;3.92;0.95;;;15.10;99.90;;;;;;5035569;28;20049;-72
2022/07/27 00:49:25;;;;;;;2.60;0.43;;;15.10;99.90;;;;;;5046628;28;20287;-71
2022/07/27 00:51:52;;;;;;;4.07;0.68;;;15.00;99.90;;;;;;5033257;28;20040;-71
2022/07/27 00:54:20;;;;;;;5.03;0.93;;;15.00;99.90;;;;;;5041102;28;20509;-72
2022/07/27 00:56:45;;;;;;;4.90;0.57;;;15.00;99.90;;;;;;5042319;28;20104;-69
2022/07/27 00:59:12;;;;;;;4.32;1.60;;;15.00;99.90;;;;;;5045645;28;20365;-69
2022/07/27 01:01:38;;;;;;;3.05;0.73;;;14.90;99.90;;;;;;5039260;28;20046;-70
2022/07/27 01:06:32;;;;;;;2.95;0.85;;;15.00;99.90;;;;;;5050182;28;20063;-70
2022/07/27 01:11:44;;;;;;;4.43;0.80;;;14.90;99.90;;;;;;5062051;28;20242;-70
2022/07/27 01:14:13;;;;;;;3.47;0.70;;;14.90;99.90;;;;;;5056572;28;20190;-70
2022/07/27 01:16:39;;;;;;;2.35;0.47;;;14.90;99.90;;;;;;5056396;28;20037;-70
2022/07/27 01:19:05;;;;;;;1.70;0.47;;;14.90;99.90;;;;;;5062983;28;20037;-70
2022/07/27 01:21:34;;;;;;;;;;;14.90;99.90;;;;;;5059888;28;20122;-70
2022/07/27 01:24:00;;;;;;;2.58;0.65;;;14.80;99.90;;;;;;5058945;28;19923;-71
2022/07/27 01:26:26;;;;;;;1.75;0.60;;;14.80;99.90;;;;;;5058071;28;20035;-70
2022/07/27 01:28:57;;;;;;;7.70;0.75;;;14.80;99.90;;;;;;5064657;28;20040;-70
2022/07/27 01:31:22;;;;;;;1.30;0.60;;;14.80;99.90;;;;;;5054181;28;20079;-70
2022/07/27 01:33:49;;;;;;;2.88;0.60;;;14.70;99.90;;;;;;5068155;28;20072;-70
2022/07/27 01:36:15;;;;;;;2.42;0.80;;;14.70;99.90;;;;;;5053669;28;20037;-70
2022/07/27 01:38:40;;;;;;;1.38;0.60;;;14.70;99.90;;;;;;5067264;28;20042;-70
2022/07/27 01:41:06;;;;;;;6.13;0.80;;;14.70;99.90;;;;;;5049063;28;20052;-70
2022/07/27 01:43:31;;;;;;;0.95;0.63;;;14.70;99.90;;;;;;5045455;28;20083;-70
2022/07/27 01:45:58;;;;;;;2.60;0.65;;;14.60;99.90;;;;;;5054087;28;21282;-70
2022/07/27 01:48:24;;;;;;;;;;;14.60;99.90;;;;;;5053645;28;20510;-70
2022/07/27 01:50:50;;;;;;;2.13;0.57;;;14.60;99.90;;;;;;5050671;28;20369;-70
2022/07/27 01:53:16;;;;;;;1.30;0.52;;;14.60;99.90;;;;;;5050820;28;20040;-70
2022/07/27 01:55:42;;;;;;;1.92;0.90;;;14.60;99.90;;;;;;5049539;28;20755;-70
2022/07/27 01:58:09;;;;;;;2.15;0.50;;;14.50;99.90;;;;;;5055964;28;20036;-70
2022/07/27 02:00:36;;;;;;;1.73;0.60;;;14.50;99.90;;;;;;5050104;28;20493;-70
2022/07/27 02:03:03;;;;;;;2.33;1.05;;;14.50;99.90;;;;;;5052757;28;20037;-70
2022/07/27 02:05:29;;;;;;;1.98;0.63;;;14.50;99.90;;;;;;5055799;28;20391;-70
2022/07/27 02:07:54;;;;;;;3.30;0.82;;;14.50;99.90;;;;;;5060737;28;20465;-69
2022/07/27 02:10:20;;;;;;;3.53;0.80;;;14.50;99.90;;;;;;5058777;28;20037;-70
2022/07/27 02:12:46;;;;;;;2.45;0.50;;;14.40;99.90;;;;;;5054225;28;20116;-69
2022/07/27 02:15:14;;;;;;;2.42;0.77;;;14.40;99.90;;;;;;5063173;28;20032;-70
2022/07/27 02:17:41;;;;;;;1.38;0.43;;;14.40;99.90;;;;;;5057088;28;20072;-70
2022/07/27 02:20:08;;;;;;;3.80;0.63;;;14.30;99.90;;;;;;5058802;28;20098;-70
2022/07/27 02:22:34;;;;;;;2.28;0.80;;;14.30;99.90;;;;;;5057957;28;20343;-70
2022/07/27 02:25:00;;;;;;;4.85;1.20;;;14.20;99.90;;;;;;5059204;28;20041;-70
2022/07/27 02:27:26;;;;;;;4.43;0.90;;;14.30;99.90;;;;;;5053167;28;20469;-70
2022/07/27 02:29:52;;;;;;;2.17;0.70;;;14.30;99.90;;;;;;5040553;28;20044;-70
2022/07/27 02:32:18;;;;;;;1.60;0.73;;;14.30;99.90;;;;;;5054493;28;20039;-70
2022/07/27 02:34:44;;;;;;;5.28;0.90;;;14.30;99.90;;;;;;5049797;28;20028;-70
2022/07/27 02:37:10;;;;;;;5.90;1.48;;;14.30;99.90;;;;;;5044670;28;20033;-69
2022/07/27 02:39:36;;;;;;;3.40;1.10;;;14.30;99.90;;;;;;5031301;28;20040;-70
2022/07/27 02:42:02;;;;;;;2.80;0.70;;;14.30;99.90;;;;;;5052248;28;20124;-70
2022/07/27 02:44:28;;;;;;;4.57;0.85;;;14.30;99.90;;;;;;5051592;28;20503;-70
2022/07/27 02:46:54;;;;;;;2.47;0.60;;;14.20;99.90;;;;;;5051817;28;20403;-69
2022/07/27 02:49:20;;;;;;;2.67;0.70;;;14.30;99.90;;;;;;5051644;28;20037;-69
2022/07/27 02:51:50;;;;;;;4.97;0.80;;;14.20;99.90;;;;;;5051859;28;20060;-69
2022/07/27 02:54:20;;;;;;;3.30;0.50;;;14.30;99.90;;;;;;5057517;28;20335;-70
2022/07/27 02:56:49;;;;;;;2.95;0.70;;;14.30;99.90;;;;;;5053534;28;20261;-70
2022/07/27 02:59:22;;;;;;;6.95;0.93;;;14.30;99.90;;;;;;5058934;28;20459;-70
2022/07/27 03:01:56;;;;;;;1.13;0.47;;;14.30;99.90;;;;;;5051353;28;20048;-70
2022/07/27 03:04:22;;;;;;;1.50;0.50;;;14.30;99.90;;;;;;5028503;28;20047;-69
2022/07/27 03:06:48;;;;;;;1.10;0.65;;;14.30;99.90;;;;;;5050982;28;20784;-70
2022/07/27 03:09:13;;;;;;;1.50;0.93;;;14.30;99.90;;;;;;5049094;28;20747;-70
2022/07/27 03:11:39;;;;;;;4.47;0.83;;;14.30;99.90;;;;;;5055257;28;20329;-69
2022/07/27 03:14:05;;;;;;;3.30;0.57;;;14.30;99.90;;;;;;5053409;28;20157;-69
2022/07/27 03:16:30;;;;;;;3.50;0.98;;;14.30;99.90;;;;;;5048173;28;20095;-70
2022/07/27 03:18:59;;;;;;;2.92;0.60;;;14.30;99.90;;;;;;5050034;28;20040;-69
2022/07/27 03:21:24;;;;;;;2.85;0.60;;;14.30;99.90;;;;;;5054666;28;20043;-69
2022/07/27 03:23:50;;;;;;;1.63;0.45;;;14.40;99.90;;;;;;5073432;28;20184;-70
2022/07/27 03:26:17;;;;;;;1.30;0.50;;;14.40;99.90;;;;;;5071043;28;20565;-70
2022/07/27 03:28:44;;;;;;;2.35;0.70;;;14.40;99.90;;;;;;5051385;28;20037;-69
2022/07/27 03:31:09;;;;;;;;;;;14.50;99.90;;;;;;5051307;28;20127;-69
2022/07/27 03:33:35;;;;;;;2.85;0.68;;;14.50;99.90;;;;;;5055002;28;20018;-70
2022/07/27 03:36:01;;;;;;;3.00;0.68;;;14.50;99.90;;;;;;5053130;28;20048;-70
2022/07/27 03:38:28;;;;;;;1.38;0.57;;;14.40;99.90;;;;;;5058667;28;20165;-69
2022/07/27 03:40:53;;;;;;;4.35;0.90;;;14.50;99.90;;;;;;5046035;28;20040;-70
2022/07/27 03:43:19;;;;;;;2.35;0.77;;;14.50;99.90;;;;;;5053987;28;20090;-69
2022/07/27 03:45:45;;;;;;;1.75;0.80;;;14.50;99.90;;;;;;5045249;28;20082;-70
2022/07/27 03:48:11;;;;;;;3.00;0.70;;;14.50;99.90;;;;;;5052672;28;20040;-70
2022/07/27 03:50:36;;;;;;;1.88;1.35;;;14.50;99.90;;;;;;5047447;28;20448;-69
2022/07/27 03:53:02;;;;;;;4.65;1.50;;;14.50;99.90;;;;;;5064827;28;20044;-70
2022/07/27 03:55:28;;;;;;;2.53;0.90;;;14.60;99.90;;;;;;5055110;28;20412;-70
2022/07/27 03:57:54;;;;;;;4.28;0.82;;;14.50;99.90;;;;;;5053539;28;20036;-70
2022/07/27 04:00:20;;;;;;;3.72;0.80;;;14.60;99.90;;;;;;5051676;28;20047;-70
2022/07/27 04:02:46;;;;;;;1.92;1.27;;;14.50;99.90;;;;;;5051587;28;20059;-70
2022/07/27 04:05:12;;;;;;;4.22;0.90;;;14.60;99.90;;;;;;5057350;28;20066;-70
2022/07/27 04:07:39;;;;;;;4.78;1.15;;;14.60;99.90;;;;;;5060203;28;20051;-70
2022/07/27 04:10:06;;;;;;;5.45;0.77;;;14.60;99.90;;;;;;5048469;28;20041;-70
2022/07/27 04:12:34;;;;;;;3.50;1.15;;;14.60;99.90;;;;;;5050895;28;20291;-70
2022/07/27 04:14:59;;;;;;;2.30;1.00;;;14.70;99.90;;;;;;5051610;28;20040;-70
2022/07/27 04:17:25;;;;;;;4.37;0.80;;;14.70;99.90;;;;;;5048184;28;20037;-70
2022/07/27 04:19:51;;;;;;;3.03;0.70;;;14.70;99.90;;;;;;5047027;28;20383;-70
2022/07/27 04:22:16;;;;;;;4.13;0.97;;;14.70;99.90;;;;;;5057579;28;20287;-70
2022/07/27 04:24:42;;;;;;;2.37;0.60;;;14.70;99.90;;;;;;5055965;28;20477;-70
2022/07/27 04:27:08;;;;;;;6.60;0.60;;;14.70;99.90;;;;;;5054885;28;20291;-70
2022/07/27 04:29:34;;;;;;;;;;;14.80;99.90;;;;;;5061095;28;20465;-70
2022/07/27 04:31:59;;;;;;;4.65;0.68;;;14.80;99.90;;;;;;5055815;28;19917;-70
2022/07/27 04:34:28;;;;;;;4.73;0.80;;;14.70;99.90;;;;;;5060897;28;20036;-70
2022/07/27 04:36:53;;;;;;;1.85;0.60;;;14.80;99.90;;;;;;5063959;28;20665;-70
2022/07/27 04:39:19;;;;;;;2.35;0.82;;;14.80;99.90;;;;;;5054594;28;20075;-69
2022/07/27 04:41:45;;;;;;;4.40;0.88;;;14.80;99.90;;;;;;5061713;28;20127;-70
2022/07/27 04:44:11;;;;;;;3.10;0.98;;;14.80;99.90;;;;;;5049478;28;20032;-70
2022/07/27 04:46:37;;;;;;;2.78;0.77;;;14.80;99.90;;;;;;5052735;28;20088;-70
2022/07/27 04:49:03;;;;;;;3.60;0.90;;;14.80;99.90;;;;;;5055523;28;20028;-69
2022/07/27 04:51:28;;;;;;;3.17;0.88;;;14.80;99.90;;;;;;5051019;28;20032;-70
2022/07/27 04:53:54;;;;;;;6.90;1.00;;;14.90;99.90;;;;;;5060916;28;20075;-70
2022/07/27 04:56:19;;;;;;;2.33;0.83;;;14.90;99.90;;;;;;5058574;28;20580;-69
2022/07/27 04:58:45;;;;;;;2.10;0.67;;;14.90;99.90;;;;;;5053432;28;20298;-70
2022/07/27 05:01:11;;;;;;;3.65;0.73;;;14.90;99.90;;;;;;5051733;28;20386;-69
2022/07/27 05:03:38;;;;;;;3.80;0.82;;;15.00;99.90;;;;;;5055141;28;20424;-70
2022/07/27 05:06:04;;;;;;;3.80;1.15;;;15.00;99.90;;;;;;5053425;28;20247;-70
2022/07/27 05:08:30;;;;;;;2.88;1.10;;;14.90;99.90;;;;;;5053810;28;20040;-70
2022/07/27 05:10:55;;;;;;;4.03;1.80;;;15.00;99.90;;;;;;5047854;28;20037;-70
2022/07/27 05:13:21;;;;;;;5.37;0.93;;;14.90;99.90;;;;;;5058271;28;20698;-70
2022/07/27 05:15:47;;;;;;;2.33;0.88;;;15.00;99.90;;;;;;5047073;28;20294;-70
2022/07/27 05:18:12;;;;;;;4.20;1.00;;;15.00;99.90;;;;;;5053457;28;21999;-70
2022/07/27 05:20:38;;;;;;;2.67;0.83;;;15.00;99.90;;;;;;5053151;28;20047;-70
2022/07/27 05:23:03;;;;;;;2.65;1.00;;;15.00;99.90;;;;;;5057316;28;20048;-70
2022/07/27 05:25:29;;;;;;;4.67;0.97;;;15.10;99.90;;;;;;5052696;28;20056;-70
2022/07/27 05:27:55;;;;;;;8.27;1.15;;;15.10;99.90;;;;;;5052507;28;20753;-70
2022/07/27 05:30:22;;;;;;;2.55;0.60;;;15.10;99.90;;;;;;5056387;28;20090;-70
2022/07/27 05:32:48;;;;;;;2.88;0.90;;;15.10;99.90;;;;;;5051218;28;20045;-70
2022/07/27 05:35:13;;;;;;;1.88;0.68;;;15.10;99.90;;;;;;5053769;28;20094;-70
2022/07/27 05:37:42;;;;;;;1.52;0.70;;;15.20;99.90;;;;;;5048765;28;20037;-70
2022/07/27 05:40:09;;;;;;;2.53;0.63;;;15.20;99.90;;;;;;5051430;28;20040;-70
2022/07/27 05:42:35;;;;;;;4.57;0.98;;;15.30;99.90;;;;;;5050071;28;20079;-70
2022/07/27 05:45:00;;;;;;;3.53;1.00;;;15.30;99.90;;;;;;5049782;28;20056;-70
2022/07/27 05:47:26;;;;;;;2.60;0.85;;;15.30;99.90;;;;;;5049230;28;20041;-70
2022/07/27 05:49:52;;;;;;;3.50;1.08;;;15.30;99.90;;;;;;5057048;28;20557;-71
2022/07/27 05:52:19;;;;;;;3.35;0.90;;;15.30;99.90;;;;;;5051521;28;20037;-72
2022/07/27 05:54:45;;;;;;;3.78;0.82;;;15.30;99.90;;;;;;5048889;28;20127;-71
2022/07/27 05:57:11;;;;;;;1.35;0.60;;;15.30;99.90;;;;;;5051543;28;20438;-71
2022/07/27 05:59:37;;;;;;;5.22;1.10;;;15.30;99.90;;;;;;5054472;28;20072;-72
2022/07/27 06:02:03;;;;;;;2.10;0.70;;;15.30;99.90;;;;;;5054843;28;20074;-72
2022/07/27 06:04:28;;;;;;;4.03;0.90;;;15.30;99.90;;;;;;5048225;28;20040;-70
2022/07/27 06:09:39;;;;;;;2.67;0.93;;;15.30;99.90;;;;;;5056192;28;20040;-69
2022/07/27 06:12:05;;;;;;;2.10;0.88;;;15.30;99.90;;;;;;5062462;28;20494;-70
2022/07/27 06:14:31;;;;;;;3.10;1.15;;;15.30;99.90;;;;;;5061447;28;20055;-70
2022/07/27 06:16:57;;;;;;;3.05;1.05;;;15.30;99.90;;;;;;5055736;28;20113;-69
2022/07/27 06:19:23;;;;;;;3.10;1.60;;;15.30;99.90;;;;;;5050126;28;20485;-70
2022/07/27 06:21:49;;;;;;;1.38;0.65;;;15.40;99.90;;;;;;5051889;28;20047;-70
2022/07/27 06:24:15;;;;;;;2.60;0.93;;;15.30;99.90;;;;;;5049024;28;20040;-70
2022/07/27 06:26:41;;;;;;;2.42;1.02;;;15.40;99.90;;;;;;5058338;28;20036;-70
2022/07/27 06:29:06;;;;;;;6.07;1.10;;;15.40;99.90;;;;;;5053726;28;20078;-70
2022/07/27 06:31:32;;;;;;;4.82;1.17;;;15.40;99.90;;;;;;5045088;28;20071;-70
2022/07/27 06:33:58;;;;;;;3.60;1.43;;;15.50;99.90;;;;;;5057403;28;20447;-70
2022/07/27 06:36:23;;;;;;;2.17;0.88;;;15.50;99.90;;;;;;5050837;28;20812;-70
2022/07/27 06:38:49;;;;;;;2.78;1.08;;;15.50;99.90;;;;;;5052958;28;20385;-70
2022/07/27 06:41:16;;;;;;;2.78;1.00;;;15.50;99.90;;;;;;5053620;28;20028;-70
2022/07/27 06:43:41;;;;;;;4.05;1.02;;;15.60;99.90;;;;;;5054240;28;20426;-70
2022/07/27 06:46:11;;;;;;;5.50;0.88;;;15.60;99.90;;;;;;5046511;28;20110;-70
2022/07/27 06:48:37;;;;;;;1.98;0.73;;;15.70;99.90;;;;;;5054216;28;20129;-70
2022/07/27 06:51:03;;;;;;;;;;;15.70;99.90;;;;;;5054342;28;20174;-70
2022/07/27 06:53:28;;;;;;;2.10;0.57;;;15.70;99.90;;;;;;5050943;28;20038;-70
2022/07/27 06:55:57;;;;;;;1.35;0.60;;;15.80;99.90;;;;;;5052085;28;20033;-70
2022/07/27 06:58:22;;;;;;;2.30;0.73;;;15.80;99.90;;;;;;5051103;28;20044;-70
2022/07/27 07:00:48;;;;;;;4.97;0.80;;;15.80;99.90;;;;;;5050744;28;20575;-70
2022/07/27 07:03:13;;;;;;;1.52;0.82;;;15.90;99.90;;;;;;5068748;22;20403;-69
2022/07/27 07:05:44;;;;;;;3.85;0.95;;;15.90;99.90;;;;;;5042449;28;20048;-70
2022/07/27 07:08:10;;;;;;;1.80;0.65;;;16.00;99.90;;;;;;5078184;28;20044;-70
2022/07/27 07:10:43;;;;;;;1.85;0.75;;;16.00;99.90;;;;;;5080861;28;20036;-71
2022/07/27 07:13:09;;;;;;;1.00;0.40;;;16.10;99.90;;;;;;5078723;28;20040;-71
2022/07/27 07:15:36;;;;;;;;;;;16.10;99.90;;;;;;5079559;28;20071;-70
2022/07/27 07:18:02;;;;;;;1.70;0.52;;;16.20;99.90;;;;;;5078883;28;20463;-70
2022/07/27 07:20:29;;;;;;;1.23;0.55;;;16.30;99.90;;;;;;5078843;28;20040;-70
2022/07/27 07:22:56;;;;;;;1.73;0.70;;;16.30;99.90;;;;;;5080277;28;20070;-70
2022/07/27 07:25:21;;;;;;;5.70;0.80;;;16.40;99.90;;;;;;5080601;28;20075;-71
2022/07/27 07:27:50;;;;;;;3.78;1.08;;;16.50;99.90;;;;;;5081967;28;20032;-71
2022/07/27 07:30:16;;;;;;;1.98;0.70;;;16.60;99.90;;;;;;5077815;28;20036;-70
2022/07/27 07:32:41;;;;;;;3.17;0.57;;;16.60;99.90;;;;;;5074417;28;20039;-70
2022/07/27 07:35:10;;;;;;;2.42;0.70;;;16.70;99.90;;;;;;5077669;28;20032;-71
2022/07/27 07:37:36;;;;;;;2.92;0.40;;;16.80;99.90;;;;;;5077390;28;20393;-70
2022/07/27 07:40:04;;;;;;;4.13;0.63;;;16.90;99.90;;;;;;5075506;28;20044;-71
2022/07/27 07:42:30;;;;;;;1.88;0.70;;;17.10;99.90;;;;;;5074300;28;20105;-71
2022/07/27 07:44:56;;;;;;;2.97;0.88;;;17.20;99.90;;;;;;5080674;28;20028;-70
2022/07/27 07:47:24;;;;;;;2.40;0.52;;;17.30;99.90;;;;;;5074209;28;20048;-70
2022/07/27 07:49:50;;;;;;;3.28;0.60;;;17.30;99.90;;;;;;5072509;28;20047;-70
2022/07/27 07:52:16;;;;;;;1.73;0.57;;;17.40;99.90;;;;;;5074447;28;20055;-70
2022/07/27 07:54:41;;;;;;;3.53;0.40;;;17.40;99.90;;;;;;5080493;28;20028;-71
2022/07/27 07:57:07;;;;;;;2.58;0.75;;;17.50;99.90;;;;;;5060061;28;20052;-70
2022/07/27 07:59:33;;;;;;;3.17;0.80;;;17.50;99.90;;;;;;5074867;28;20071;-70
2022/07/27 08:02:02;;;;;;;3.45;0.80;;;17.60;99.90;;;;;;5079400;28;20040;-70
2022/07/27 08:04:27;;;;;;;1.23;0.50;;;17.80;99.90;;;;;;5078117;28;20519;-70
2022/07/27 08:06:53;;;;;;;1.45;0.38;;;17.70;99.90;;;;;;5083593;28;20103;-70
2022/07/27 08:09:20;;;;;;;1.52;0.68;;;17.70;99.90;;;;;;5080727;28;20150;-69
2022/07/27 08:11:46;;;;;;;3.92;0.60;;;17.80;99.90;;;;;;5060587;28;20377;-69
2022/07/27 08:14:12;;;;;;;4.40;1.23;;;17.70;99.90;;;;;;5082004;28;20123;-70
2022/07/27 08:16:38;;;;;;;1.20;0.45;;;17.60;99.90;;;;;;5089918;28;20767;-70
2022/07/27 08:19:04;;;;;;;;;;;17.60;99.90;;;;;;5083346;28;20029;-70
2022/07/27 08:21:29;;;;;;;1.13;0.40;;;17.50;99.90;;;;;;5084892;28;20000;-70
2022/07/27 08:23:55;;;;;;;2.75;0.60;;;17.40;99.90;;;;;;5080673;28;20297;-70
2022/07/27 08:26:20;;;;;;;1.38;0.50;;;17.30;99.90;;;;;;5084542;28;20044;-70
2022/07/27 08:28:46;;;;;;;2.17;0.73;;;17.30;99.90;;;;;;5081503;28;20043;-70
2022/07/27 08:31:12;;;;;;;2.92;1.25;;;17.30;99.90;;;;;;5084118;28;20043;-69
2022/07/27 08:33:38;;;;;;;1.25;0.60;;;17.30;99.90;;;;;;5084182;28;20381;-70
2022/07/27 08:36:03;;;;;;;2.35;0.40;;;17.30;99.90;;;;;;5080069;28;20037;-70
2022/07/27 08:38:29;;;;;;;2.67;0.35;;;17.30;99.90;;;;;;5082990;28;20039;-70
2022/07/27 08:40:55;;;;;;;0.82;0.40;;;17.30;99.90;;;;;;5053076;28;20075;-70
2022/07/27 08:43:24;;;;;;;;;;;17.30;99.90;;;;;;5081499;28;20104;-69
2022/07/27 08:45:58;;;;;;;1.50;0.55;;;17.40;99.90;;;;;;5084382;28;20402;-70
2022/07/27 08:48:25;;;;;;;1.17;0.43;;;17.40;99.90;;;;;;5081733;28;20044;-70
2022/07/27 08:50:51;;;;;;;1.30;0.32;;;17.50;99.90;;;;;;5082899;28;20036;-70
2022/07/27 08:53:17;;;;;;;;;;;17.50;99.90;;;;;;5082486;28;20067;-70
2022/07/27 08:55:47;;;;;;;1.52;0.50;;;17.50;99.90;;;;;;5085588;28;20429;-69
2022/07/27 08:58:14;;;;;;;1.10;0.28;;;17.60;99.90;;;;;;5083327;28;20107;-70
2022/07/27 09:00:47;;;;;;;2.83;0.70;;;17.60;99.90;;;;;;5079755;28;20559;-70
2022/07/27 09:03:14;;;;;;;1.45;0.45;;;17.60;99.90;;;;;;5079520;28;20082;-71
2022/07/27 09:05:58;;;;;;;2.00;0.60;;;17.70;99.90;;;;;;5079946;28;20050;-71
2022/07/27 09:08:29;;;;;;;1.48;0.60;;;17.70;99.90;;;;;;5080099;28;20036;-70
2022/07/27 09:10:56;;;;;;;1.17;0.38;;;17.90;99.90;;;;;;5071889;28;20043;-71
2022/07/27 09:13:28;;;;;;;3.10;1.05;;;18.00;99.90;;;;;;5060484;28;20515;-71
2022/07/27 09:16:02;;;;;;;2.83;0.80;;;18.10;99.90;;;;;;5079281;28;20036;-71
2022/07/27 09:18:30;;;;;;;1.70;0.45;;;18.20;99.90;;;;;;5084977;28;20492;-71
2022/07/27 09:21:19;;;;;;;3.38;0.73;;;18.20;99.90;;;;;;5082249;28;20416;-71
2022/07/27 09:23:54;;;;;;;2.00;0.57;;;18.30;99.90;;;;;;5080148;28;20040;-71
2022/07/27 09:26:30;;;;;;;1.83;0.80;;;18.30;99.90;;;;;;5078613;28;20036;-71
2022/07/27 09:29:07;;;;;;;4.93;0.80;;;18.40;99.90;;;;;;5075532;28;20066;-70
2022/07/27 09:31:44;;;;;;;2.97;0.50;;;18.30;99.90;;;;;;5082653;28;20043;-70
2022/07/27 09:34:12;;;;;;;1.52;0.45;;;18.30;99.90;;;;;;5081977;28;20126;-71
2022/07/27 09:36:51;;;;;;;2.03;0.35;;;18.30;99.90;;;;;;5083094;28;20043;-70
2022/07/27 09:39:22;;;;;;;2.70;0.38;;;18.30;99.90;;;;;;5082551;28;20036;-70
2022/07/27 09:41:56;;;;;;;0.60;0.30;;;18.30;99.90;;;;;;5078042;28;20515;-71
2022/07/27 09:44:39;;;;;;;2.65;0.57;;;18.30;99.90;;;;;;5084769;28;20457;-71
2022/07/27 09:47:26;;;;;;;1.60;0.43;;;18.20;99.90;;;;;;5068027;28;20081;-70
2022/07/27 09:50:16;;;;;;;2.23;0.70;;;18.30;99.90;;;;;;5079542;28;20408;-70
2022/07/27 09:52:42;;;;;;;2.42;0.52;;;18.20;99.90;;;;;;5075807;28;20068;-71
2022/07/27 09:55:09;;;;;;;2.70;0.40;;;18.20;99.90;;;;;;5082939;28;20096;-70
2022/07/27 09:57:55;;;;;;;1.35;0.50;;;18.20;99.90;;;;;;5084835;28;20039;-71
2022/07/27 10:00:22;;;;;;;4.13;0.45;;;18.30;99.90;;;;;;5084182;28;20052;-70
2022/07/27 10:02:50;;;;;;;1.42;0.52;;;18.40;99.90;;;;;;5077496;28;20102;-71
2022/07/27 10:05:20;;;;;;;1.13;0.60;;;18.50;99.90;;;;;;5081341;28;20477;-71
2022/07/27 10:07:53;;;;;;;1.27;0.57;;;18.70;99.90;;;;;;5066663;28;20455;-71
2022/07/27 10:10:20;;;;;;;1.27;0.40;;;18.90;99.90;;;;;;5078378;28;20101;-71
2022/07/27 10:12:47;;;;;;;1.40;0.40;;;19.10;99.90;;;;;;5080938;28;20048;-72
2022/07/27 10:15:13;;;;;;;2.10;0.55;;;19.30;99.90;;;;;;5078367;28;20043;-71
2022/07/27 10:17:43;;;;;;;;;;;19.40;99.90;;;;;;5073849;28;20032;-71
2022/07/27 10:20:14;;;;;;;2.67;0.45;;;19.50;99.90;;;;;;5055125;28;20075;-71
2022/07/27 10:23:00;;;;;;;1.08;0.60;;;19.50;99.90;;;;;;5075748;28;20469;-71
2022/07/27 10:25:28;;;;;;;4.45;0.50;;;19.50;99.90;;;;;;5081518;28;20136;-71
2022/07/27 10:28:13;;;;;;;2.53;0.52;;;19.50;99.90;;;;;;5079077;28;20449;-71
2022/07/27 10:30:39;;;;;;;2.63;0.70;;;19.50;99.90;;;;;;5077135;28;20093;-71
2022/07/27 10:33:36;;;;;;;3.30;0.50;;;19.30;99.90;;;;;;5081054;28;20036;-71
2022/07/27 10:36:03;;;;;;;1.77;0.50;;;19.20;99.90;;;;;;5078346;28;20064;-70
2022/07/27 10:38:48;;;;;;;2.85;0.40;;;19.10;99.90;;;;;;5070874;28;20065;-70
2022/07/27 10:41:27;;;;;;;1.83;0.63;;;19.00;99.90;;;;;;5078786;28;20067;-71
2022/07/27 10:44:16;;;;;;;0.82;0.47;;;19.00;99.90;;;;;;5077597;28;20127;-71
2022/07/27 10:46:59;;;;;;;2.58;0.80;;;18.90;99.90;;;;;;5081681;28;20060;-71
2022/07/27 10:49:27;;;;;;;0.75;0.40;;;19.00;99.90;;;;;;5081746;28;20071;-71
2022/07/27 10:51:55;;;;;;;1.33;0.50;;;19.00;99.90;;;;;;5088497;28;20115;-71
2022/07/27 10:54:26;;;;;;;1.35;0.40;;;19.00;99.90;;;;;;5082768;28;20517;-69
2022/07/27 10:56:56;;;;;;;3.35;0.65;;;19.00;99.90;;;;;;5081162;28;20135;-69
2022/07/27 10:59:42;;;;;;;1.17;0.30;;;19.00;99.90;;;;;;5082198;28;20089;-70
2022/07/27 11:02:35;;;;;;;0.80;0.38;;;19.00;99.90;;;;;;5076238;28;20178;-70
2022/07/27 11:05:03;;;;;;;2.38;0.30;;;19.00;99.90;;;;;;5079206;28;20040;-71
2022/07/27 11:07:28;;;;;;;1.35;0.30;;;19.10;99.90;;;;;;5084119;28;20055;-71
2022/07/27 11:09:54;;;;;;;0.82;0.28;;;19.10;99.90;;;;;;5076144;28;20487;-71
2022/07/27 11:12:20;;;;;;;0.70;0.20;;;19.20;99.90;;;;;;5084032;28;20111;-71
2022/07/27 11:14:55;;;;;;;0.40;0.28;;;19.30;99.90;;;;;;5079994;28;20119;-71
2022/07/27 11:17:23;;;;;;;1.23;0.55;;;19.50;99.90;;;;;;5082448;28;20063;-71
2022/07/27 11:19:57;;;;;;;0.85;0.22;;;19.70;99.90;;;;;;5084780;28;20048;-71
2022/07/27 11:22:39;;;;;;;0.45;0.20;;;19.90;99.90;;;;;;5081280;28;20055;-71
2022/07/27 11:25:07;;;;;;;1.17;0.20;;;20.10;99.70;;;;;;5080209;28;20036;-71
2022/07/27 11:27:48;;;;;;;1.52;0.30;;;20.30;99.80;;;;;;5083550;28;20518;-71
2022/07/27 11:30:40;;;;;;;0.55;0.25;;;20.50;99.30;;;;;;5082131;28;20465;-71
2022/07/27 11:33:06;;;;;;;3.33;0.40;;;20.70;97.80;;;;;;5079057;28;20111;-71
2022/07/27 11:35:32;;;;;;;2.10;0.30;;;20.90;98.20;;;;;;5082783;28;20468;-71
2022/07/27 11:38:00;;;;;;;1.77;0.30;;;21.00;97.30;;;;;;5085038;28;20111;-71
2022/07/27 11:40:27;;;;;;;1.65;0.30;;;21.10;96.80;;;;;;5080949;28;20043;-71
2022/07/27 11:42:52;;;;;;;0.28;0.10;;;21.30;96.50;;;;;;5086341;28;20043;-71
2022/07/27 11:45:40;;;;;;;0.70;0.30;;;21.50;96.20;;;;;;5087471;28;20092;-72
2022/07/27 11:48:09;;;;;;;0.75;0.20;;;21.50;95.10;;;;;;5105858;28;20067;-77
2022/07/27 11:50:35;;;;;;;0.65;0.30;;;21.50;95.10;;;;;;5080802;28;20036;-75
2022/07/27 11:53:01;;;;;;;2.10;0.30;;;21.30;94.90;;;;;;5086459;28;20134;-75
2022/07/27 11:55:27;;;;;;;0.70;0.22;;;21.30;94.70;;;;;;5087646;28;20052;-71
2022/07/27 11:58:00;;;;;;;0.43;0.10;;;21.20;94.40;;;;;;5086715;28;20118;-72
2022/07/27 12:00:39;;;;;;;0.68;0.30;;;21.10;94.60;;;;;;5075656;28;20366;-71
2022/07/27 12:03:05;;;;;;;0.60;0.28;;;21.20;95.00;;;;;;5062309;28;20041;-71
2022/07/27 12:05:31;;;;;;;0.93;0.28;;;21.30;93.90;;;;;;5081941;28;20036;-70
2022/07/27 12:07:56;;;;;;;1.98;0.38;;;21.30;94.00;;;;;;5083009;28;20280;-70
2022/07/27 12:10:25;;;;;;;0.80;0.22;;;21.10;94.30;;;;;;5080892;28;20097;-70
2022/07/27 12:12:52;;;;;;;1.27;0.30;;;21.10;94.70;;;;;;5081721;28;20524;-71
2022/07/27 12:15:19;;;;;;;1.27;0.38;;;21.00;94.80;;;;;;5082240;28;20044;-70
2022/07/27 12:17:46;;;;;;;4.40;0.40;;;20.90;95.30;;;;;;5080382;28;20111;-71
2022/07/27 12:20:14;;;;;;;3.15;0.57;;;20.70;95.60;;;;;;5080358;28;20047;-71
2022/07/27 12:22:50;;;;;;;4.47;0.28;;;20.70;95.50;;;;;;5084958;28;20036;-71
2022/07/27 12:25:15;;;;;;;1.70;0.45;;;20.80;95.60;;;;;;5082774;28;20462;-70
2022/07/27 12:27:55;;;;;;;0.65;0.20;;;21.00;95.20;;;;;;5074237;28;20536;-71
2022/07/27 12:30:48;;;;;;;1.50;0.38;;;21.10;94.50;;;;;;5085765;28;20465;-72
2022/07/27 12:33:35;;;;;;;1.02;0.40;;;21.10;94.70;;;;;;5062566;28;20048;-72
2022/07/27 12:36:05;;;;;;;2.70;0.60;;;21.00;94.30;;;;;;5077115;28;20043;-71
2022/07/27 12:38:47;;;;;;;1.02;0.40;;;20.90;95.00;;;;;;5082426;28;20496;-71
2022/07/27 12:41:36;;;;;;;0.68;0.22;;;20.80;95.00;;;;;;5080083;28;20143;-71
2022/07/27 12:44:10;;;;;;;1.02;0.28;;;20.80;94.70;;;;;;5080620;28;20044;-71
2022/07/27 12:47:00;;;;;;;0.88;0.22;;;20.60;94.70;;;;;;5080815;28;20036;-71
2022/07/27 12:49:36;;;;;;;0.93;0.20;;;20.40;92.90;;;;;;5074326;28;20562;-71
2022/07/27 12:52:07;;;;;;;1.70;0.60;;;20.30;94.40;;;;;;5092059;28;20074;-71
2022/07/27 12:54:33;;;;;;;2.25;0.43;;;20.10;94.70;;;;;;5076184;28;20036;-71
2022/07/27 12:56:59;;;;;;;;;;;20.00;95.10;;;;;;5080786;28;20162;-72
2022/07/27 12:59:28;;;;;;;1.90;0.30;;;20.00;95.50;;;;;;5081599;28;19916;-72
2022/07/27 13:01:55;;;;;;;2.40;0.43;;;20.00;96.00;;;;;;5083042;28;20085;-72
2022/07/27 13:04:21;;;;;;;1.23;0.70;;;20.00;96.40;;;;;;5079683;28;20360;-71